createdAt,value
2023-05-07T00:00:27.251Z,10.37
2023-05-07T00:03:15.529Z,10.80
2023-05-07T00:06:01.994Z,11.93
2023-05-07T00:08:48.557Z,11.60
2023-05-07T00:11:37.230Z,12.00
2023-05-07T00:14:23.681Z,12.93
2023-05-07T00:17:10.121Z,12.00
2023-05-07T00:19:57.821Z,11.30
2023-05-07T00:22:44.407Z,12.57
2023-05-07T00:25:31.345Z,12.07
2023-05-07T00:28:17.793Z,11.73
2023-05-07T00:31:04.085Z,11.17
2023-05-07T00:33:50.503Z,9.33
2023-05-07T00:36:38.438Z,9.47
2023-05-07T00:39:24.690Z,9.60
2023-05-07T00:42:11.220Z,9.97
2023-05-07T00:44:57.977Z,9.23
2023-05-07T00:47:45.086Z,9.33
2023-05-07T00:50:32.260Z,9.50
2023-05-07T00:53:20.221Z,9.73
2023-05-07T00:56:08.192Z,10.00
2023-05-07T00:58:57.681Z,10.00
2023-05-07T01:01:44.633Z,10.40
2023-05-07T01:04:31.264Z,9.47
2023-05-07T01:07:18.028Z,10.97
2023-05-07T01:10:07.420Z,10.47
2023-05-07T01:12:55.755Z,11.00
2023-05-07T01:15:42.765Z,10.17
2023-05-07T01:18:30.921Z,10.40
2023-05-07T01:21:18.625Z,9.30
2023-05-07T01:24:07.720Z,9.40
2023-05-07T01:26:54.041Z,9.73
2023-05-07T01:29:40.804Z,9.03
2023-05-07T01:32:34.274Z,9.20
2023-05-07T01:35:23.502Z,8.63
2023-05-07T01:38:11.045Z,8.63
2023-05-07T01:40:59.678Z,8.83
2023-05-07T01:43:46.871Z,9.33
2023-05-07T01:46:34.467Z,9.73
2023-05-07T01:49:21.588Z,9.40
2023-05-07T01:52:08.373Z,9.00
2023-05-07T01:54:54.952Z,8.60
2023-05-07T01:57:43.025Z,9.17
2023-05-07T02:00:29.876Z,9.03
2023-05-07T02:03:16.274Z,8.23
2023-05-07T02:06:03.179Z,8.80
2023-05-07T02:08:49.911Z,8.67
2023-05-07T02:11:36.451Z,9.00
2023-05-07T02:14:24.278Z,9.13
2023-05-07T02:17:10.791Z,8.10
2023-05-07T02:19:57.239Z,8.83
2023-05-07T02:22:43.752Z,8.70
2023-05-07T02:25:30.148Z,8.67
2023-05-07T02:28:16.571Z,8.70
2023-05-07T02:31:04.754Z,8.87
2023-05-07T02:33:51.309Z,8.40
2023-05-07T02:36:37.555Z,7.80
2023-05-07T02:39:24.012Z,8.27
2023-05-07T02:42:10.408Z,9.73
2023-05-07T02:44:57.001Z,8.90
2023-05-07T02:47:44.856Z,8.60
2023-05-07T02:50:31.513Z,8.87
2023-05-07T02:53:17.842Z,8.87
2023-05-07T02:56:04.838Z,9.70
2023-05-07T02:58:51.446Z,8.80
2023-05-07T03:01:37.841Z,8.80
2023-05-07T03:04:25.636Z,9.13
2023-05-07T03:07:12.182Z,9.17
2023-05-07T03:09:58.521Z,8.87
2023-05-07T03:12:44.928Z,9.07
2023-05-07T03:15:31.818Z,9.07
2023-05-07T03:18:18.251Z,9.77
2023-05-07T03:21:06.456Z,10.17
2023-05-07T03:23:52.823Z,11.30
2023-05-07T03:26:39.144Z,10.37
2023-05-07T03:29:25.867Z,10.87
2023-05-07T03:32:12.423Z,10.87
2023-05-07T03:34:58.892Z,11.83
2023-05-07T03:37:46.645Z,11.50
2023-05-07T03:40:33.385Z,11.80
2023-05-07T03:43:19.712Z,11.77
2023-05-07T03:46:05.989Z,11.97
2023-05-07T03:48:52.521Z,12.33
2023-05-07T03:51:39.227Z,11.53
2023-05-07T03:54:27.035Z,11.30
2023-05-07T03:57:13.705Z,12.30
2023-05-07T04:00:00.244Z,12.17
2023-05-07T04:02:46.987Z,11.33
2023-05-07T04:05:33.822Z,11.63
2023-05-07T04:08:20.405Z,12.20
2023-05-07T04:11:08.113Z,12.13
2023-05-07T04:13:55.023Z,11.23
2023-05-07T04:16:41.632Z,12.37
2023-05-07T04:19:28.015Z,12.33
2023-05-07T04:22:14.709Z,12.17
2023-05-07T04:25:01.292Z,12.13
2023-05-07T04:27:51.593Z,12.23
2023-05-07T04:30:38.179Z,12.63
2023-05-07T04:33:24.502Z,11.73
2023-05-07T04:36:11.884Z,12.60
2023-05-07T04:38:58.493Z,12.87
2023-05-07T04:41:45.004Z,12.50
2023-05-07T04:44:32.999Z,13.07
2023-05-07T04:47:19.521Z,13.03
2023-05-07T04:50:06.571Z,13.90
2023-05-07T04:52:53.409Z,14.23
2023-05-07T04:55:39.877Z,14.43
2023-05-07T04:58:26.410Z,13.60
2023-05-07T05:01:14.388Z,13.67
2023-05-07T05:04:02.160Z,14.73
2023-05-07T05:06:48.900Z,14.40
2023-05-07T05:09:35.447Z,13.27
2023-05-07T05:12:21.810Z,13.17
2023-05-07T05:15:09.897Z,13.27
2023-05-07T05:17:58.000Z,14.10
2023-05-07T05:20:45.029Z,14.33
2023-05-07T05:23:31.818Z,12.93
2023-05-07T05:26:18.278Z,12.77
2023-05-07T05:29:04.759Z,13.20
2023-05-07T05:31:51.338Z,13.70
2023-05-07T05:34:39.191Z,12.90
2023-05-07T05:37:25.977Z,12.93
2023-05-07T05:40:13.451Z,12.47
2023-05-07T05:42:59.958Z,12.70
2023-05-07T05:45:46.587Z,13.70
2023-05-07T05:48:32.901Z,11.80
2023-05-07T05:51:20.519Z,11.83
2023-05-07T05:54:07.409Z,12.33
2023-05-07T05:56:53.878Z,12.10
2023-05-07T05:59:40.327Z,11.30
2023-05-07T06:02:26.817Z,11.73
2023-05-07T06:05:13.199Z,11.67
2023-05-07T06:08:00.853Z,11.57
2023-05-07T06:10:47.761Z,11.17
2023-05-07T06:13:35.631Z,10.40
2023-05-07T06:16:22.381Z,11.27
2023-05-07T06:19:08.855Z,10.70
2023-05-07T06:21:55.268Z,10.67
2023-05-07T06:24:42.896Z,11.17
2023-05-07T06:27:29.577Z,9.90
2023-05-07T06:30:16.317Z,10.30
2023-05-07T06:33:03.017Z,9.90
2023-05-07T06:35:49.665Z,9.70
2023-05-07T06:38:37.798Z,9.17
2023-05-07T06:41:25.519Z,8.70
2023-05-07T06:44:12.214Z,8.47
2023-05-07T06:46:59.546Z,8.93
2023-05-07T06:49:46.379Z,8.80
2023-05-07T06:52:32.889Z,8.83
2023-05-07T06:55:20.228Z,8.30
2023-05-07T06:58:14.498Z,8.30
2023-05-07T07:01:01.549Z,8.07
2023-05-07T07:03:48.723Z,8.73
2023-05-07T07:06:35.188Z,8.27
2023-05-07T07:09:23.288Z,7.90
2023-05-07T07:12:10.616Z,7.47
2023-05-07T07:14:58.496Z,8.07
2023-05-07T07:17:45.375Z,7.53
2023-05-07T07:20:32.274Z,8.30
2023-05-07T07:23:18.804Z,9.17
2023-05-07T07:26:06.990Z,8.00
2023-05-07T07:28:53.347Z,8.63
2023-05-07T07:31:41.496Z,9.33
2023-05-07T07:34:28.370Z,8.87
2023-05-07T07:37:14.895Z,8.97
2023-05-07T07:40:04.764Z,10.40
2023-05-07T07:42:51.445Z,10.10
2023-05-07T07:45:38.140Z,10.87
2023-05-07T07:48:26.575Z,10.10
2023-05-07T07:51:13.109Z,10.87
2023-05-07T07:53:59.618Z,10.53
2023-05-07T07:56:46.009Z,11.00
2023-05-07T07:59:32.756Z,9.73
2023-05-07T08:02:19.525Z,10.00
2023-05-07T08:05:08.433Z,9.03
2023-05-07T08:07:55.145Z,8.93
2023-05-07T08:10:41.570Z,9.50
2023-05-07T08:13:28.318Z,9.33
2023-05-07T08:16:15.336Z,8.10
2023-05-07T08:19:01.831Z,8.10
2023-05-07T08:21:50.052Z,7.63
2023-05-07T08:24:36.741Z,7.50
2023-05-07T08:27:22.983Z,7.93
2023-05-07T08:30:10.958Z,7.40
2023-05-07T08:32:57.779Z,8.13
2023-05-07T08:35:44.051Z,8.00
2023-05-07T08:38:31.817Z,8.00
2023-05-07T08:41:18.287Z,8.03
2023-05-07T08:44:09.552Z,7.57
2023-05-07T08:46:57.773Z,7.90
2023-05-07T08:49:44.296Z,6.93
2023-05-07T08:52:31.102Z,7.13
2023-05-07T08:55:19.184Z,6.20
2023-05-07T08:58:06.123Z,6.40
2023-05-07T09:00:54.413Z,6.17
2023-05-07T09:03:41.594Z,5.70
2023-05-07T09:06:27.894Z,6.43
2023-05-07T09:09:18.712Z,6.30
2023-05-07T09:12:07.079Z,6.63
2023-05-07T09:14:53.677Z,7.87
2023-05-07T09:17:40.158Z,6.93
2023-05-07T09:20:26.746Z,7.27
2023-05-07T09:23:13.078Z,7.40
2023-05-07T09:26:03.084Z,7.27
2023-05-07T09:28:51.259Z,7.47
2023-05-07T09:31:39.598Z,6.80
2023-05-07T09:34:26.273Z,8.30
2023-05-07T09:37:15.444Z,7.37
2023-05-07T09:40:01.939Z,7.73
2023-05-07T09:42:49.214Z,6.57
2023-05-07T09:45:38.411Z,7.40
2023-05-07T09:48:25.006Z,9.37
2023-05-07T09:51:32.342Z,10.27
2023-05-07T09:54:21.175Z,10.17
2023-05-07T09:57:08.226Z,9.80
2023-05-07T09:59:57.023Z,9.80
2023-05-07T10:02:49.298Z,10.10
2023-05-07T10:05:36.991Z,11.37
2023-05-07T10:08:23.956Z,9.77
2023-05-07T10:11:11.739Z,10.37
2023-05-07T10:13:58.857Z,9.83
2023-05-07T10:16:45.781Z,9.27
2023-05-07T10:19:34.813Z,8.93
2023-05-07T10:22:22.558Z,9.00
2023-05-07T10:25:16.257Z,9.43
2023-05-07T10:28:08.062Z,9.60
2023-05-07T10:31:09.931Z,9.83
2023-05-07T10:33:58.224Z,10.17
2023-05-07T10:36:48.064Z,10.50
2023-05-07T10:39:34.971Z,9.60
2023-05-07T10:42:21.749Z,9.83
2023-05-07T10:45:15.623Z,10.10
2023-05-07T10:48:27.227Z,10.47
2023-05-07T10:51:22.287Z,10.60
2023-05-07T10:54:25.941Z,10.27
2023-05-07T10:57:35.180Z,10.90
2023-05-07T11:00:45.859Z,10.20
2023-05-07T11:03:32.409Z,10.17
2023-05-07T11:06:18.973Z,11.77
2023-05-07T11:09:05.449Z,11.03
2023-05-07T11:11:53.217Z,11.20
2023-05-07T11:14:46.947Z,10.07
2023-05-07T11:17:37.292Z,8.57
2023-05-07T11:20:55.023Z,8.93
2023-05-07T11:24:00.967Z,8.50
2023-05-07T11:26:49.216Z,8.17
2023-05-07T11:29:37.475Z,8.93
2023-05-07T11:32:25.552Z,9.37
2023-05-07T11:35:12.926Z,8.90
2023-05-07T11:38:01.782Z,9.43
2023-05-07T11:40:52.373Z,9.07
2023-05-07T11:43:40.936Z,8.73
2023-05-07T11:46:29.759Z,8.80
2023-05-07T11:49:16.790Z,9.43
2023-05-07T11:52:04.928Z,8.50
2023-05-07T11:54:52.792Z,8.60
2023-05-07T11:57:39.593Z,10.10
2023-05-07T12:00:26.085Z,10.30
2023-05-07T12:03:13.723Z,10.20
2023-05-07T12:06:02.191Z,8.57
2023-05-07T12:08:48.895Z,9.30
2023-05-07T12:11:36.299Z,7.97
2023-05-07T12:14:22.747Z,8.33
2023-05-07T12:17:09.910Z,6.73
2023-05-07T12:19:58.225Z,7.77
2023-05-07T12:22:45.233Z,6.57
2023-05-07T12:25:32.921Z,6.80
2023-05-07T12:28:21.243Z,6.10
2023-05-07T12:31:08.551Z,6.47
2023-05-07T12:33:55.169Z,6.57
2023-05-07T12:36:43.198Z,6.57
2023-05-07T12:39:29.911Z,6.80
2023-05-07T12:42:18.374Z,7.80
2023-05-07T12:45:11.312Z,8.40
2023-05-07T12:48:02.875Z,8.70
2023-05-07T12:50:51.988Z,8.27
2023-05-07T12:53:43.157Z,8.60
2023-05-07T12:56:33.159Z,8.80
2023-05-07T12:59:19.541Z,8.37
2023-05-07T13:02:06.644Z,8.57
2023-05-07T13:04:54.058Z,9.00
2023-05-07T13:07:41.770Z,9.27
2023-05-07T13:10:30.040Z,9.33
2023-05-07T13:13:16.667Z,8.80
2023-05-07T13:16:03.335Z,8.60
2023-05-07T13:18:49.972Z,7.85
2023-05-07T13:21:36.311Z,6.85
2023-05-07T13:24:23.175Z,6.43
2023-05-07T13:27:11.070Z,7.60
2023-05-07T13:29:57.723Z,7.90
2023-05-07T13:32:44.961Z,7.78
2023-05-07T13:35:31.887Z,6.33
2023-05-07T13:38:18.966Z,6.70
2023-05-07T13:41:05.283Z,6.00
2023-05-07T13:43:53.546Z,5.63
2023-05-07T13:46:40.120Z,5.57
2023-05-07T13:49:26.761Z,5.15
2023-05-07T13:52:13.572Z,5.43
2023-05-07T13:55:00.106Z,5.50
2023-05-07T13:57:46.616Z,5.45
2023-05-07T14:00:34.397Z,5.28
2023-05-07T14:03:21.128Z,5.22
2023-05-07T14:06:07.648Z,5.00
2023-05-07T14:08:54.063Z,4.80
2023-05-07T14:11:40.685Z,4.70
2023-05-07T14:14:27.065Z,5.03
2023-05-07T14:17:14.882Z,4.72
2023-05-07T14:20:03.624Z,5.05
2023-05-07T14:22:50.163Z,5.22
2023-05-07T14:25:36.578Z,6.00
2023-05-07T14:28:23.559Z,5.45
2023-05-07T14:31:10.805Z,6.03
2023-05-07T14:34:00.101Z,5.40
2023-05-07T14:36:48.897Z,5.50
2023-05-07T14:39:35.401Z,5.33
2023-05-07T14:42:21.605Z,4.72
2023-05-07T14:45:09.152Z,4.90
2023-05-07T14:47:56.526Z,4.95
2023-05-07T14:50:44.332Z,4.55
2023-05-07T14:53:30.892Z,4.88
2023-05-07T14:56:18.045Z,4.15
2023-05-07T14:59:05.105Z,4.45
2023-05-07T15:01:51.692Z,4.15
2023-05-07T15:04:39.133Z,3.85
2023-05-07T15:07:27.232Z,3.95
2023-05-07T15:10:13.925Z,4.03
2023-05-07T15:13:00.318Z,4.43
2023-05-07T15:15:47.168Z,3.87
2023-05-07T15:18:33.532Z,4.03
2023-05-07T15:21:20.040Z,4.00
2023-05-07T15:24:10.353Z,4.03
2023-05-07T15:26:57.539Z,4.20
2023-05-07T15:29:43.991Z,4.00
2023-05-07T15:32:30.756Z,3.88
2023-05-07T15:35:18.287Z,3.72
2023-05-07T15:38:05.030Z,3.80
2023-05-07T15:40:53.867Z,3.63
2023-05-07T15:43:46.469Z,3.60
2023-05-07T15:46:33.218Z,3.67
2023-05-07T15:49:19.869Z,3.60
2023-05-07T15:52:10.979Z,3.73
2023-05-07T15:54:57.806Z,4.43
2023-05-07T15:57:45.838Z,3.80
2023-05-07T16:00:32.621Z,4.18
2023-05-07T16:03:19.309Z,4.07
2023-05-07T16:06:06.495Z,4.32
2023-05-07T16:08:53.157Z,4.18
2023-05-07T16:11:39.510Z,4.43
2023-05-07T16:14:27.378Z,4.68
2023-05-07T16:17:13.887Z,4.47
2023-05-07T16:20:04.100Z,4.78
2023-05-07T16:22:50.720Z,4.77
2023-05-07T16:25:37.357Z,4.53
2023-05-07T16:28:25.623Z,4.30
2023-05-07T16:31:13.945Z,4.80
2023-05-07T16:34:01.165Z,4.87
2023-05-07T16:36:47.777Z,4.97
2023-05-07T16:39:34.368Z,4.50
2023-05-07T16:42:20.583Z,4.47
2023-05-07T16:45:08.804Z,5.47
2023-05-07T16:47:58.535Z,5.23
2023-05-07T16:50:44.986Z,5.33
2023-05-07T16:53:31.259Z,5.37
2023-05-07T16:56:17.967Z,5.37
2023-05-07T16:59:04.386Z,5.27
2023-05-07T17:01:52.387Z,6.43
2023-05-07T17:04:40.504Z,5.67
2023-05-07T17:07:27.721Z,5.57
2023-05-07T17:10:14.200Z,5.60
2023-05-07T17:13:00.603Z,5.90
2023-05-07T17:15:47.633Z,5.73
2023-05-07T17:18:35.101Z,5.70
2023-05-07T17:21:23.105Z,5.43
2023-05-07T17:24:10.549Z,5.60
2023-05-07T17:26:57.080Z,6.00
2023-05-07T17:29:43.485Z,5.93
2023-05-07T17:32:34.822Z,6.33
2023-05-07T17:35:22.557Z,6.37
2023-05-07T17:38:10.668Z,6.70
2023-05-07T17:40:57.096Z,6.17
2023-05-07T17:43:44.873Z,6.13
2023-05-07T17:46:31.829Z,6.50
2023-05-07T17:49:18.371Z,6.33
2023-05-07T17:52:05.041Z,5.60
2023-05-07T17:54:53.155Z,6.13
2023-05-07T17:57:39.721Z,5.93
2023-05-07T18:00:25.968Z,5.67
2023-05-07T18:03:12.616Z,6.03
2023-05-07T18:06:00.081Z,5.97
2023-05-07T18:08:46.549Z,6.03
2023-05-07T18:11:34.688Z,6.70
2023-05-07T18:14:24.066Z,6.80
2023-05-07T18:17:11.049Z,6.83
2023-05-07T18:19:57.761Z,7.17
2023-05-07T18:22:44.152Z,6.90
2023-05-07T18:25:30.668Z,6.50
2023-05-07T18:28:18.445Z,6.87
2023-05-07T18:31:05.771Z,7.13
2023-05-07T18:33:53.428Z,7.00
2023-05-07T18:36:39.846Z,7.30
2023-05-07T18:39:26.378Z,6.70
2023-05-07T18:42:13.349Z,6.77
2023-05-07T18:45:01.162Z,7.47
2023-05-07T18:47:48.502Z,6.83
2023-05-07T18:50:35.260Z,6.93
2023-05-07T18:53:21.937Z,7.17
2023-05-07T18:56:09.394Z,6.97
2023-05-07T18:58:55.971Z,7.37
2023-05-07T19:01:44.038Z,7.03
2023-05-07T19:04:31.397Z,7.73
2023-05-07T19:07:18.274Z,7.90
2023-05-07T19:10:07.475Z,7.53
2023-05-07T19:12:55.658Z,7.27
2023-05-07T19:15:42.954Z,7.70
2023-05-07T19:18:31.860Z,7.40
2023-05-07T19:21:18.252Z,7.80
2023-05-07T19:24:04.777Z,8.37
2023-05-07T19:26:51.300Z,8.47
2023-05-07T19:29:37.710Z,8.87
2023-05-07T19:32:23.879Z,8.77
2023-05-07T19:35:11.993Z,8.17
2023-05-07T19:37:58.692Z,8.17
2023-05-07T19:40:45.206Z,8.03
2023-05-07T19:43:35.954Z,8.10
2023-05-07T19:46:22.451Z,8.73
2023-05-07T19:49:11.202Z,8.07
2023-05-07T19:52:00.432Z,8.50
2023-05-07T19:54:48.098Z,8.03
2023-05-07T19:57:34.942Z,8.53
2023-05-07T20:00:26.388Z,8.53
2023-05-07T20:03:18.424Z,8.00
2023-05-07T20:06:05.680Z,7.63
2023-05-07T20:08:53.455Z,7.53
2023-05-07T20:11:42.468Z,8.13
2023-05-07T20:14:29.131Z,7.53
2023-05-07T20:17:15.725Z,6.73
2023-05-07T20:20:02.190Z,7.13
2023-05-07T20:22:48.636Z,7.00
2023-05-07T20:25:36.578Z,5.90
2023-05-07T20:28:22.923Z,5.93
2023-05-07T20:31:09.249Z,6.43
2023-05-07T20:33:55.581Z,6.20
2023-05-07T20:36:42.347Z,6.20
2023-05-07T20:39:28.849Z,6.23
2023-05-07T20:42:17.014Z,5.77
2023-05-07T20:45:04.346Z,6.27
2023-05-07T20:47:51.069Z,6.13
2023-05-07T20:50:37.624Z,6.70
2023-05-07T20:53:23.855Z,6.57
2023-05-07T20:56:10.637Z,6.57
2023-05-07T20:58:58.829Z,6.60
2023-05-07T21:01:45.509Z,6.87
2023-05-07T21:04:32.554Z,6.70
2023-05-07T21:07:19.183Z,7.07
2023-05-07T21:10:06.673Z,6.93
2023-05-07T21:12:53.367Z,6.87
2023-05-07T21:15:42.732Z,6.80
2023-05-07T21:18:30.803Z,6.87
2023-05-07T21:21:17.390Z,7.00
2023-05-07T21:24:04.560Z,6.70
2023-05-07T21:26:50.997Z,6.63
2023-05-07T21:29:37.286Z,6.60
2023-05-07T21:32:25.070Z,6.53
2023-05-07T21:35:11.589Z,7.33
2023-05-07T21:37:58.046Z,6.47
2023-05-07T21:40:44.953Z,7.20
2023-05-07T21:43:31.756Z,6.80
2023-05-07T21:46:19.119Z,7.23
2023-05-07T21:49:06.779Z,7.37
2023-05-07T21:51:53.198Z,6.80
2023-05-07T21:54:39.691Z,7.33
2023-05-07T21:57:26.273Z,7.40
2023-05-07T22:00:14.138Z,7.73
2023-05-07T22:03:01.175Z,6.60
2023-05-07T22:05:49.920Z,7.60
2023-05-07T22:08:36.694Z,7.50
2023-05-07T22:11:23.107Z,7.10
2023-05-07T22:14:09.393Z,6.67
2023-05-07T22:16:55.883Z,6.87
2023-05-07T22:19:42.914Z,7.23
2023-05-07T22:22:30.550Z,7.23
2023-05-07T22:25:18.566Z,7.00
2023-05-07T22:28:05.809Z,7.20
2023-05-07T22:30:52.317Z,7.47
2023-05-07T22:33:38.688Z,7.00
2023-05-07T22:36:24.835Z,6.97
2023-05-07T22:39:12.610Z,7.73
2023-05-07T22:41:58.834Z,7.23
2023-05-07T22:44:45.466Z,7.60
2023-05-07T22:47:32.104Z,7.43
2023-05-07T22:50:18.852Z,7.53
2023-05-07T22:53:05.291Z,7.40
2023-05-07T22:55:53.174Z,7.13
2023-05-07T22:58:39.793Z,7.53
2023-05-07T23:01:26.486Z,7.20
2023-05-07T23:04:13.518Z,7.27
2023-05-07T23:07:00.353Z,7.17
2023-05-07T23:09:46.724Z,7.77
2023-05-07T23:12:35.686Z,7.50
2023-05-07T23:15:22.265Z,7.87
2023-05-07T23:18:08.757Z,7.87
2023-05-07T23:20:55.181Z,7.53
2023-05-07T23:23:41.577Z,7.40
2023-05-07T23:26:28.535Z,8.17
2023-05-07T23:29:16.632Z,8.00
2023-05-07T23:32:03.629Z,7.80
2023-05-07T23:34:51.131Z,6.90
2023-05-07T23:37:37.735Z,7.50
2023-05-07T23:40:24.304Z,7.00
2023-05-07T23:43:10.923Z,7.27
2023-05-07T23:45:58.737Z,7.33
2023-05-07T23:48:45.109Z,7.37
2023-05-07T23:51:31.787Z,7.83
2023-05-07T23:54:18.447Z,7.63
2023-05-07T23:57:04.932Z,7.50
2023-05-07T23:59:52.034Z,7.80
